Time;durP1;ratioP1;P1;durP2;ratioP2;P2;SDS_P1;SDS_P2;PMS_P1;PMS_P2;Temp;Humidity;BMP_temperature;BMP_pressure;BME280_temperature;BME280_humidity;BME280_pressure;Samples;Min_cycle;Max_cycle;Signal;HPM_P1;HPM_P2
2023/12/24 00:01:38;;;;;;;0.70;0.70;;;11.40;99.90;;;11.77;78.92;100300.94;4872859;28;24514;-66
2023/12/24 00:04:00;;;;;;;0.73;0.73;;;11.40;99.90;;;11.73;78.54;100297.75;4870971;28;24427;-65
2023/12/24 00:06:22;;;;;;;0.60;0.60;;;11.40;99.90;;;11.74;79.12;100291.56;4877549;28;24459;-66
2023/12/24 00:08:44;;;;;;;0.70;0.70;;;11.50;99.90;;;11.75;78.90;100305.47;4864002;28;24455;-66
2023/12/24 00:11:06;;;;;;;1.10;0.70;;;11.40;99.90;;;11.72;79.43;100296.09;4861912;28;24437;-67
2023/12/24 00:13:28;;;;;;;0.60;0.60;;;11.40;99.90;;;11.77;79.41;100288.72;4875881;28;24462;-66
2023/12/24 00:15:50;;;;;;;1.50;0.70;;;11.40;99.90;;;11.76;79.04;100294.88;4868933;28;24881;-66
2023/12/24 00:18:12;;;;;;;0.70;0.70;;;11.40;99.90;;;11.78;79.16;100295.56;4876992;28;24427;-67
2023/12/24 00:20:34;;;;;;;0.70;0.70;;;11.40;99.90;;;11.80;78.48;100296.28;4875897;28;24793;-66
2023/12/24 00:23:08;;;;;;;0.60;0.60;;;11.40;99.90;;;11.80;78.97;100296.28;4876834;28;24840;-65
2023/12/24 00:25:30;;;;;;;1.30;0.70;;;11.50;99.90;;;11.79;78.90;100289.41;4843541;28;24451;-66
2023/12/24 00:27:52;;;;;;;1.30;0.70;;;11.40;99.90;;;11.81;79.14;100295.34;4866910;28;24470;-66
2023/12/24 00:30:14;;;;;;;0.80;0.80;;;11.50;99.90;;;11.82;78.92;100290.94;4874724;28;24434;-66
2023/12/24 00:32:35;;;;;;;0.80;0.80;;;11.50;99.90;;;11.81;78.78;100289.28;4872419;28;24513;-66
2023/12/24 00:34:58;;;;;;;0.63;0.63;;;11.50;99.90;;;11.76;79.46;100287.03;4875812;28;24446;-67
2023/12/24 00:37:19;;;;;;;0.80;0.80;;;11.40;99.90;;;11.80;78.78;100280.59;4875831;28;24813;-66
2023/12/24 00:39:41;;;;;;;0.70;0.70;;;11.50;99.90;;;11.78;78.56;100282.50;4865313;28;24443;-68
2023/12/24 00:42:04;;;;;;;0.80;0.70;;;11.50;99.90;;;11.73;79.62;100287.31;4856666;28;24524;-66
2023/12/24 00:44:26;;;;;;;0.70;0.70;;;11.40;99.90;;;11.71;79.14;100278.75;4857600;28;24625;-69
2023/12/24 00:46:48;;;;;;;0.70;0.70;;;11.40;99.90;;;11.75;79.14;100277.56;4857714;28;25039;-66
2023/12/24 00:49:10;;;;;;;0.70;0.70;;;11.40;99.90;;;11.76;79.68;100271.34;4862697;28;24449;-66
2023/12/24 00:51:32;;;;;;;0.60;0.60;;;11.40;99.90;;;11.76;79.19;100266.13;4874572;28;24430;-66
2023/12/24 00:53:54;;;;;;;1.00;0.70;;;11.40;99.90;;;11.75;79.52;100248.78;4868627;28;24505;-66
2023/12/24 00:56:16;;;;;;;0.90;0.60;;;11.40;99.90;;;11.73;78.60;100255.94;4863998;28;24824;-66
2023/12/24 00:58:38;;;;;;;0.80;0.77;;;11.40;99.90;;;11.79;79.17;100257.19;4874896;28;25043;-66
2023/12/24 01:01:00;;;;;;;0.67;0.67;;;11.50;99.90;;;11.80;78.58;100243.19;4873957;28;24463;-67
2023/12/24 01:03:22;;;;;;;0.52;0.52;;;11.50;99.90;;;11.73;79.01;100255.94;4875878;28;24434;-66
2023/12/24 01:05:44;;;;;;;1.30;0.60;;;11.40;99.90;;;11.72;79.18;100249.03;4869731;28;24458;-66
2023/12/24 01:08:06;;;;;;;0.68;0.68;;;11.40;99.90;;;11.73;78.81;100253.31;4866257;28;25012;-67
2023/12/24 01:10:28;;;;;;;0.70;0.60;;;11.40;99.90;;;11.76;78.40;100242.59;4863994;28;24447;-67
2023/12/24 01:12:50;;;;;;;0.80;0.80;;;11.40;99.90;;;11.68;79.43;100245.03;4865848;28;24447;-66
2023/12/24 01:15:12;;;;;;;0.70;0.70;;;11.40;99.90;;;11.66;78.72;100228.63;4871614;28;24419;-66
2023/12/24 01:17:34;;;;;;;0.73;0.73;;;11.40;99.90;;;11.69;78.83;100244.09;4863961;28;24431;-67
2023/12/24 01:19:57;;;;;;;0.93;0.70;;;11.40;99.90;;;11.73;78.43;100235.03;4863544;28;25061;-66
2023/12/24 01:22:19;;;;;;;0.75;0.70;;;11.40;99.90;;;11.73;78.04;100248.09;4862672;28;25175;-66
2023/12/24 01:24:41;;;;;;;1.70;0.77;;;11.40;99.90;;;11.76;78.34;100239.97;4861474;28;24528;-67
2023/12/24 01:27:03;;;;;;;0.70;0.70;;;11.40;99.90;;;11.76;78.65;100231.31;4875383;28;24535;-66
2023/12/24 01:29:25;;;;;;;0.50;0.50;;;11.50;99.90;;;11.76;78.48;100244.38;4867827;28;24501;-65
2023/12/24 01:31:47;;;;;;;2.05;0.60;;;11.50;99.90;;;11.77;78.21;100248.66;4873403;28;24434;-66
2023/12/24 01:34:09;;;;;;;0.50;0.50;;;11.40;99.90;;;11.74;79.23;100254.97;4874031;28;24549;-66
2023/12/24 01:36:31;;;;;;;0.70;0.70;;;11.50;99.90;;;11.69;79.47;100257.16;4864965;28;25001;-65
2023/12/24 01:38:53;;;;;;;0.80;0.80;;;11.40;99.90;;;11.64;79.83;100246.19;4864721;28;24490;-66
2023/12/24 01:41:15;;;;;;;0.70;0.70;;;11.30;99.90;;;11.63;79.49;100241.91;4869898;28;24433;-66
2023/12/24 01:43:37;;;;;;;0.50;0.50;;;11.30;99.90;;;11.63;79.47;100244.53;4861781;28;24452;-65
2023/12/24 01:45:59;;;;;;;0.60;0.60;;;11.30;99.90;;;11.58;80.24;100247.50;4857227;28;24563;-68
2023/12/24 01:48:21;;;;;;;0.60;0.60;;;11.30;99.90;;;11.56;79.28;100241.59;4856503;28;24551;-65
2023/12/24 01:50:45;;;;;;;1.00;0.70;;;11.30;99.90;;;11.59;79.63;100246.56;4865157;28;24505;-65
2023/12/24 01:53:07;;;;;;;0.60;0.60;;;11.30;99.90;;;11.63;78.87;100249.75;4873503;28;24431;-66
2023/12/24 01:55:30;;;;;;;1.83;0.60;;;11.30;99.90;;;11.61;79.64;100254.28;4862381;28;25207;-66
2023/12/24 01:57:52;;;;;;;0.50;0.50;;;11.40;99.90;;;11.65;78.52;100245.22;4874663;28;24510;-67
2023/12/24 02:00:16;;;;;;;0.50;0.50;;;11.40;99.90;;;11.62;79.79;100245.50;4867601;28;25005;-68
2023/12/24 02:02:38;;;;;;;0.70;0.70;;;11.30;99.90;;;11.62;79.19;100253.34;4838319;28;24435;-67
2023/12/24 02:05:01;;;;;;;0.70;0.70;;;11.40;99.90;;;11.55;80.13;100260.00;4867489;28;24992;-66
2023/12/24 02:07:26;;;;;;;0.70;0.70;;;11.30;99.90;;;11.57;80.32;100265.94;4873351;28;24489;-65
2023/12/24 02:09:48;;;;;;;0.60;0.60;;;11.20;99.90;;;11.56;80.63;100266.91;4875213;28;24526;-66
2023/12/24 02:12:10;;;;;;;0.50;0.50;;;11.20;99.90;;;11.51;80.18;100249.00;4866626;28;24543;-66
2023/12/24 02:14:31;;;;;;;0.60;0.50;;;11.20;99.90;;;11.55;80.02;100271.31;4873064;28;24522;-66
2023/12/24 02:16:58;;;;;;;0.50;0.50;;;11.30;99.90;;;11.50;80.47;100270.00;4873998;28;24481;-66
2023/12/24 02:19:20;;;;;;;0.57;0.57;;;11.30;99.90;;;11.51;80.57;100266.44;4857462;28;24829;-67
2023/12/24 02:21:42;;;;;;;0.50;0.50;;;11.20;99.90;;;11.52;80.38;100271.53;4863298;28;24503;-69
2023/12/24 02:24:05;;;;;;;0.50;0.50;;;11.20;99.90;;;11.54;81.19;100271.44;4867725;28;25114;-68
2023/12/24 02:26:36;;;;;;;0.50;0.50;;;11.30;99.90;;;11.47;81.41;100267.66;4870942;28;24792;-67
2023/12/24 02:29:20;;;;;;;0.70;0.70;;;11.20;99.90;;;11.50;81.09;100298.75;4860015;28;24443;-68
2023/12/24 02:31:46;;;;;;;0.60;0.50;;;11.20;99.90;;;11.47;81.42;100285.94;4864587;28;24974;-66
2023/12/24 02:34:11;;;;;;;0.60;0.60;;;11.20;99.90;;;11.46;81.95;100284.25;4841294;28;24459;-66
2023/12/24 02:36:34;;;;;;;0.60;0.60;;;11.20;99.90;;;11.47;81.74;100299.00;4853950;28;24561;-67
2023/12/24 02:38:57;;;;;;;0.50;0.50;;;11.20;99.90;;;11.39;83.03;100294.38;4851376;28;24432;-66
2023/12/24 02:41:19;;;;;;;0.57;0.57;;;11.10;99.90;;;11.41;82.59;100299.50;4872779;28;24423;-66
2023/12/24 02:43:41;;;;;;;0.60;0.50;;;11.10;99.90;;;11.34;83.67;100290.50;4873600;28;24859;-67
2023/12/24 02:46:03;;;;;;;0.50;0.50;;;11.10;99.90;;;11.33;83.67;100291.47;4863872;28;24450;-66
2023/12/24 02:48:26;;;;;;;0.60;0.60;;;11.10;99.90;;;11.28;83.41;100288.38;4874580;28;24518;-66
2023/12/24 02:50:48;;;;;;;0.57;0.57;;;11.00;99.90;;;11.28;83.50;100275.31;4864431;28;24542;-64
2023/12/24 02:53:10;;;;;;;0.50;0.50;;;11.00;99.90;;;11.26;83.61;100269.38;4872930;28;24649;-68
2023/12/24 02:55:32;;;;;;;0.50;0.50;;;11.00;99.90;;;11.24;83.89;100266.06;4867649;28;24447;-65
2023/12/24 02:57:54;;;;;;;0.50;0.50;;;11.00;99.90;;;11.30;83.76;100262.97;4864221;28;24507;-66
2023/12/24 03:00:16;;;;;;;0.75;0.60;;;11.00;99.90;;;11.33;83.79;100270.56;4872465;28;24427;-66
2023/12/24 03:02:38;;;;;;;0.60;0.60;;;11.00;99.90;;;11.30;83.70;100258.56;4871472;28;24471;-66
2023/12/24 03:05:01;;;;;;;0.43;0.43;;;11.00;99.90;;;11.31;83.63;100251.53;4878049;28;25186;-66
2023/12/24 03:07:24;;;;;;;6.75;2.95;;;11.10;99.90;;;11.31;83.10;100260.22;4868994;28;21387;-66
2023/12/24 03:09:45;;;;;;;0.50;0.50;;;11.00;99.90;;;11.22;83.49;100254.91;4859612;28;24571;-68
2023/12/24 03:12:07;;;;;;;0.70;0.70;;;11.00;99.90;;;11.26;84.16;100249.34;4866484;28;24451;-65
2023/12/24 03:14:29;;;;;;;0.65;0.65;;;10.90;99.90;;;11.25;83.31;100258.09;4861322;28;24464;-66
2023/12/24 03:16:52;;;;;;;0.70;0.70;;;10.90;99.90;;;11.26;83.22;100251.94;4868559;28;24438;-67
2023/12/24 03:19:14;;;;;;;0.70;0.70;;;10.90;99.90;;;11.23;82.57;100249.56;4874349;28;25037;-66
2023/12/24 03:21:42;;;;;;;2.20;0.63;;;10.90;99.90;;;11.28;82.52;100254.44;4875951;28;24438;-66
2023/12/24 03:24:06;;;;;;;0.70;0.70;;;11.00;99.90;;;11.31;83.05;100251.53;4875172;28;24447;-66
2023/12/24 03:26:29;;;;;;;0.70;0.70;;;11.00;99.90;;;11.30;82.13;100258.56;4877946;28;24427;-65
2023/12/24 03:28:51;;;;;;;0.70;0.70;;;11.00;99.90;;;11.30;82.71;100260.34;4870462;28;24455;-65
2023/12/24 03:31:13;;;;;;;1.40;0.90;;;11.00;99.90;;;11.27;81.79;100240.53;4865609;28;24428;-68
2023/12/24 03:33:38;;;;;;;0.80;0.80;;;11.00;99.90;;;11.28;82.26;100233.53;4865329;28;24458;-65
2023/12/24 03:36:00;;;;;;;1.00;0.70;;;11.00;99.90;;;11.30;81.62;100231.63;4866671;28;24521;-65
2023/12/24 03:38:22;;;;;;;0.73;0.73;;;11.00;99.90;;;11.27;81.67;100216.19;4865844;28;24451;-66
2023/12/24 03:40:44;;;;;;;1.02;0.90;;;11.00;99.90;;;11.29;82.08;100222.94;4867037;28;24528;-67
2023/12/24 03:43:06;;;;;;;0.75;0.75;;;11.00;99.90;;;11.29;81.59;100222.94;4868783;28;24449;-65
2023/12/24 03:45:29;;;;;;;0.80;0.80;;;11.00;99.90;;;11.30;81.18;100219.41;4858815;28;24428;-66
2023/12/24 03:47:51;;;;;;;0.90;0.90;;;11.00;99.90;;;11.32;81.33;100209.66;4876647;28;24427;-66
2023/12/24 03:50:13;;;;;;;0.80;0.80;;;11.00;99.90;;;11.34;80.77;100204.31;4875586;28;24489;-66
2023/12/24 03:52:35;;;;;;;0.70;0.70;;;11.00;99.90;;;11.34;80.82;100212.13;4870865;28;24447;-66
2023/12/24 03:54:57;;;;;;;0.80;0.80;;;11.00;99.90;;;11.32;81.76;100207.03;4863901;28;24546;-67
2023/12/24 03:57:19;;;;;;;0.60;0.60;;;11.00;99.90;;;11.33;81.18;100200.03;4872202;28;24573;-65
2023/12/24 03:59:41;;;;;;;1.08;0.98;;;11.00;99.90;;;11.38;80.26;100203.09;4866729;28;24993;-65
2023/12/24 04:02:03;;;;;;;0.80;0.80;;;11.10;99.90;;;11.35;80.83;100200.75;4866670;28;24548;-67
2023/12/24 04:04:25;;;;;;;1.10;0.80;;;11.10;99.90;;;11.35;80.47;100208.59;4875813;28;25054;-66
2023/12/24 04:06:47;;;;;;;0.60;0.60;;;11.00;99.90;;;11.33;80.26;100200.03;4868877;28;24427;-66
2023/12/24 04:09:09;;;;;;;0.70;0.70;;;11.10;99.90;;;11.31;80.71;100183.63;4871818;28;24474;-65
2023/12/24 04:11:31;;;;;;;0.70;0.70;;;11.10;99.90;;;11.30;80.68;100171.56;4876602;28;24459;-66
2023/12/24 04:13:53;;;;;;;0.70;0.70;;;11.00;99.90;;;11.27;81.00;100159.56;4876829;28;24428;-66
2023/12/24 04:16:17;;;;;;;0.60;0.60;;;11.00;99.90;;;11.26;80.71;100136.19;4874112;28;24963;-71
2023/12/24 04:18:39;;;;;;;0.70;0.70;;;11.00;99.90;;;11.26;81.03;100159.69;4860527;28;24550;-65
2023/12/24 04:21:02;;;;;;;0.90;0.63;;;11.00;99.90;;;11.28;80.76;100174.31;4867549;28;24514;-66
2023/12/24 04:23:24;;;;;;;0.60;0.60;;;11.00;99.90;;;11.28;81.01;100181.31;4875875;28;24424;-66
2023/12/24 04:25:46;;;;;;;0.50;0.50;;;11.00;99.90;;;11.23;81.17;100180.84;4866463;28;24459;-66
2023/12/24 04:28:08;;;;;;;0.60;0.60;;;11.00;99.90;;;11.28;81.34;100179.53;4876739;28;24455;-67
2023/12/24 04:30:30;;;;;;;0.50;0.50;;;11.00;99.90;;;11.29;80.75;100178.56;4876029;28;24427;-67
2023/12/24 04:32:52;;;;;;;0.60;0.60;;;11.00;99.90;;;11.34;80.50;100167.72;4871061;28;24511;-70
2023/12/24 04:35:14;;;;;;;0.50;0.50;;;11.00;99.90;;;11.32;80.77;100165.25;4876834;28;24447;-66
2023/12/24 04:37:36;;;;;;;0.60;0.60;;;11.00;99.90;;;11.33;80.64;100179.94;4866728;28;24543;-67
2023/12/24 04:39:58;;;;;;;0.50;0.50;;;11.00;99.90;;;11.28;81.70;100168.25;4865021;28;24949;-66
2023/12/24 04:42:20;;;;;;;0.50;0.50;;;11.00;99.90;;;11.29;81.33;100164.66;4874550;28;24797;-67
2023/12/24 04:44:42;;;;;;;0.50;0.50;;;11.00;99.90;;;11.33;81.09;100163.47;4865441;28;24543;-65
2023/12/24 04:47:06;;;;;;;1.00;0.60;;;11.10;99.90;;;11.31;81.81;100134.03;4876522;28;24430;-65
2023/12/24 04:49:28;;;;;;;0.60;0.60;;;11.00;99.90;;;11.27;81.70;100146.50;4867923;28;24434;-66
2023/12/24 04:51:50;;;;;;;0.70;0.60;;;11.00;99.90;;;11.25;82.02;100165.88;4875918;28;24431;-65
2023/12/24 04:54:12;;;;;;;0.45;0.45;;;11.00;99.90;;;11.24;81.28;100152.00;4866467;28;24470;-65
2023/12/24 04:56:34;;;;;;;0.50;0.50;;;11.00;99.90;;;11.24;81.71;100151.16;4865783;28;24427;-65
2023/12/24 04:58:57;;;;;;;0.45;0.45;;;11.00;99.90;;;11.27;81.74;100148.28;4867754;28;24423;-66
2023/12/24 05:01:19;;;;;;;0.50;0.50;;;10.90;99.90;;;11.26;82.08;100133.59;4873796;28;24518;-67
2023/12/24 05:03:41;;;;;;;1.10;0.50;;;11.00;99.90;;;11.32;81.30;100138.31;4866200;28;24575;-66
2023/12/24 05:06:03;;;;;;;1.20;0.50;;;11.00;99.90;;;11.29;81.52;100136.75;4863103;28;24562;-66
2023/12/24 05:08:25;;;;;;;0.40;0.40;;;11.00;99.90;;;11.32;82.34;100143.53;4868630;28;24451;-66
2023/12/24 05:10:47;;;;;;;0.70;0.50;;;11.00;99.90;;;11.34;81.55;100152.06;4867294;28;24547;-67
2023/12/24 05:13:11;;;;;;;1.70;0.50;;;11.10;99.90;;;11.33;81.81;100135.56;4870236;28;24441;-68
2023/12/24 05:15:33;;;;;;;0.50;0.50;;;11.10;99.90;;;11.34;82.31;100125.94;4875062;28;24551;-65
2023/12/24 05:17:55;;;;;;;0.50;0.50;;;11.00;99.90;;;11.34;81.40;100126.78;4872084;28;24968;-66
2023/12/24 05:20:17;;;;;;;0.30;0.30;;;11.00;99.90;;;11.26;81.96;100126.59;4865555;28;24494;-67
2023/12/24 05:22:39;;;;;;;0.75;0.50;;;11.00;99.90;;;11.27;81.94;100125.63;4870757;28;24438;-66
2023/12/24 05:25:01;;;;;;;0.50;0.50;;;11.00;99.90;;;11.28;82.06;100113.41;4874198;28;24423;-67
2023/12/24 05:27:23;;;;;;;0.50;0.50;;;11.00;99.90;;;11.31;82.23;100120.97;4872904;28;24551;-68
2023/12/24 05:29:45;;;;;;;0.50;0.50;;;11.00;99.90;;;11.31;82.35;100106.13;4868689;28;25012;-68
2023/12/24 05:32:07;;;;;;;0.50;0.50;;;11.00;99.90;;;11.29;82.63;100113.25;4872446;28;20752;-65
2023/12/24 05:34:29;;;;;;;0.50;0.50;;;11.00;99.90;;;11.29;82.53;100107.19;4873019;28;24591;-65
2023/12/24 05:36:51;;;;;;;0.60;0.50;;;11.00;99.90;;;11.26;82.72;100104.88;4874815;28;24434;-66
2023/12/24 05:39:14;;;;;;;0.50;0.50;;;11.00;99.90;;;11.28;83.32;100100.34;4874175;28;24429;-66
2023/12/24 05:41:36;;;;;;;0.40;0.40;;;11.00;99.90;;;11.22;82.78;100103.47;4874084;28;24427;-65
2023/12/24 05:43:59;;;;;;;0.40;0.40;;;11.00;99.90;;;11.26;83.45;100102.25;4867997;28;24427;-66
2023/12/24 05:46:23;;;;;;;0.45;0.45;;;11.00;99.90;;;11.26;83.67;100110.09;4874865;28;24428;-67
2023/12/24 05:48:44;;;;;;;0.60;0.60;;;11.00;99.90;;;11.26;83.17;100095.25;4858043;28;25054;-66
2023/12/24 05:51:07;;;;;;;0.50;0.50;;;11.00;99.90;;;11.24;83.06;100102.38;4872874;28;20879;-66
2023/12/24 05:53:29;;;;;;;0.43;0.40;;;11.00;99.90;;;11.29;83.67;100102.81;4872008;28;24868;-66
2023/12/24 05:55:51;;;;;;;0.70;0.47;;;11.00;99.90;;;11.29;83.76;100097.59;4860797;28;24455;-65
2023/12/24 05:58:12;;;;;;;0.60;0.50;;;11.00;99.90;;;11.22;83.72;100090.41;4874192;28;24535;-67
2023/12/24 06:00:35;;;;;;;0.50;0.50;;;11.00;99.90;;;11.27;83.93;100099.50;4869081;28;24539;-68
2023/12/24 06:02:58;;;;;;;0.50;0.50;;;11.00;99.90;;;11.29;83.55;100101.97;4875128;28;24423;-66
2023/12/24 06:05:20;;;;;;;0.40;0.40;;;11.00;99.90;;;11.23;83.38;100115.56;4873780;28;24904;-67
2023/12/24 06:07:42;;;;;;;0.45;0.45;;;11.00;99.90;;;11.26;83.63;100107.47;4875302;28;24427;-67
2023/12/24 06:10:05;;;;;;;0.50;0.50;;;11.00;99.90;;;11.32;83.38;100073.00;4869289;28;24535;-68
2023/12/24 06:12:27;;;;;;;0.50;0.50;;;11.10;99.90;;;11.29;84.43;100076.69;4873861;28;24543;-69
2023/12/24 06:14:49;;;;;;;0.50;0.50;;;11.00;99.90;;;11.31;83.82;100064.34;4869936;28;24547;-66
2023/12/24 06:17:10;;;;;;;0.50;0.50;;;11.00;99.90;;;11.29;84.29;100066.25;4863333;28;24428;-66
2023/12/24 06:19:32;;;;;;;0.50;0.50;;;11.00;99.90;;;11.22;84.71;100048.63;4871674;28;24952;-66
2023/12/24 06:21:55;;;;;;;0.60;0.60;;;11.00;99.90;;;11.24;84.63;100050.16;4866945;28;24448;-67
2023/12/24 06:24:21;;;;;;;0.52;0.52;;;11.00;99.90;;;11.21;84.73;100044.34;4854989;28;24423;-67
2023/12/24 06:26:43;;;;;;;0.60;0.60;;;11.00;99.90;;;11.19;85.90;100049.72;4871699;28;24431;-66
2023/12/24 06:29:05;;;;;;;0.50;0.50;;;10.90;99.90;;;11.21;85.95;100052.19;4873393;28;24506;-66
2023/12/24 06:31:27;;;;;;;0.50;0.50;;;10.90;99.90;;;11.26;86.09;100055.25;4869594;28;24546;-69
2023/12/24 06:33:49;;;;;;;0.60;0.60;;;10.90;99.90;;;11.27;85.20;100055.09;4867819;28;24443;-65
2023/12/24 06:36:11;;;;;;;0.60;0.60;;;11.00;99.90;;;11.28;86.26;100050.72;4865845;28;24448;-66
2023/12/24 06:38:33;;;;;;;0.50;0.40;;;11.00;99.90;;;11.27;86.13;100056.88;4870555;28;25048;-66
2023/12/24 06:40:55;;;;;;;0.63;0.63;;;11.00;99.90;;;11.15;87.36;100055.31;4866839;28;24446;-66
2023/12/24 06:43:17;;;;;;;0.80;0.50;;;10.90;99.90;;;11.13;87.69;100054.59;4855482;28;24425;-66
2023/12/24 06:45:39;;;;;;;0.60;0.60;;;10.90;99.90;;;11.14;87.14;100045.84;4862396;28;24475;-66
2023/12/24 06:48:03;;;;;;;0.60;0.60;;;10.90;99.90;;;11.14;87.85;100058.88;4869508;28;25015;-69
2023/12/24 06:50:25;;;;;;;0.40;0.40;;;10.80;99.90;;;11.19;87.44;100064.53;4869422;28;24438;-66
2023/12/24 06:52:47;;;;;;;0.50;0.50;;;10.90;99.90;;;11.21;87.17;100065.22;4873021;28;24448;-66
2023/12/24 06:55:09;;;;;;;0.50;0.50;;;10.90;99.90;;;11.22;87.08;100052.03;4875342;28;24543;-67
2023/12/24 06:57:31;;;;;;;0.88;0.70;;;10.90;99.90;;;11.17;87.32;100050.78;4873537;28;24427;-68
2023/12/24 06:59:53;;;;;;;0.50;0.50;;;10.90;99.90;;;11.14;87.47;100051.88;4865876;28;24818;-66
2023/12/24 07:02:16;;;;;;;0.40;0.40;;;10.90;99.90;;;11.11;88.49;100061.75;4864131;28;24451;-65
2023/12/24 07:04:38;;;;;;;0.50;0.50;;;10.80;99.90;;;11.10;88.02;100050.47;4872560;28;24866;-65
2023/12/24 07:07:00;;;;;;;0.50;0.50;;;10.80;99.90;;;11.08;88.98;100061.97;4869930;28;24466;-65
2023/12/24 07:09:22;;;;;;;0.50;0.50;;;10.80;99.90;;;11.07;89.54;100062.97;4871572;28;24512;-67
2023/12/24 07:11:43;;;;;;;0.50;0.50;;;10.80;99.90;;;11.04;90.33;100073.63;4869383;28;24446;-66
2023/12/24 07:14:05;;;;;;;0.40;0.40;;;10.80;99.90;;;11.07;89.34;100076.84;4868919;28;25065;-66
2023/12/24 07:16:27;;;;;;;0.50;0.50;;;10.80;99.90;;;11.11;90.50;100072.19;4853942;28;20785;-67
2023/12/24 07:18:50;;;;;;;0.40;0.40;;;10.80;99.90;;;11.11;89.14;100069.56;4873571;28;25036;-66
2023/12/24 07:21:12;;;;;;;0.40;0.40;;;10.80;99.90;;;11.10;89.81;100057.47;4861526;28;24496;-66
2023/12/24 07:23:34;;;;;;;0.40;0.40;;;10.80;99.90;;;11.13;87.87;100071.09;4871392;28;24904;-67
2023/12/24 07:25:56;;;;;;;0.40;0.40;;;10.80;99.90;;;11.15;87.74;100050.09;4865599;28;24505;-66
2023/12/24 07:28:17;;;;;;;0.40;0.40;;;10.90;99.90;;;11.15;88.36;100045.69;4869961;28;24522;-66
2023/12/24 07:30:40;;;;;;;0.40;0.40;;;10.90;99.90;;;11.15;87.19;100048.31;4857884;28;24448;-66
2023/12/24 07:33:03;;;;;;;0.40;0.40;;;10.90;99.90;;;11.19;87.56;100060.16;4866687;28;24500;-67
2023/12/24 07:35:25;;;;;;;0.40;0.40;;;10.80;99.90;;;11.10;88.16;100066.13;4866175;28;24586;-68
2023/12/24 07:37:48;;;;;;;0.40;0.40;;;10.80;99.90;;;11.20;88.13;100058.38;4857058;28;25037;-70
2023/12/24 07:40:10;;;;;;;0.50;0.40;;;10.90;99.90;;;11.18;88.13;100068.13;4863930;28;24435;-66
2023/12/24 07:42:32;;;;;;;44.20;19.80;;;10.90;99.90;;;11.23;87.58;100076.38;4866313;28;25074;-66
2023/12/24 07:44:54;;;;;;;6.05;3.33;;;10.90;99.90;;;11.26;87.96;100081.34;4857091;28;24909;-66
2023/12/24 07:47:16;;;;;;;0.40;0.40;;;11.00;99.90;;;11.29;87.23;100094.97;4854317;28;24443;-67
2023/12/24 07:49:38;;;;;;;0.50;0.50;;;11.00;99.90;;;11.34;86.79;100099.81;4872517;28;25042;-65
2023/12/24 07:52:00;;;;;;;0.40;0.40;;;11.00;99.90;;;11.36;87.58;100095.31;4871248;28;24613;-66
2023/12/24 07:54:22;;;;;;;0.80;0.40;;;11.10;99.90;;;11.32;87.94;100091.28;4877178;28;24430;-66
2023/12/24 07:56:44;;;;;;;0.40;0.40;;;11.00;99.90;;;11.30;88.75;100098.44;4867586;28;24573;-66
2023/12/24 07:59:06;;;;;;;0.30;0.30;;;11.10;99.90;;;11.32;88.32;100101.75;4868258;28;24526;-67
2023/12/24 08:01:28;;;;;;;0.40;0.40;;;11.00;99.90;;;11.27;88.72;100094.28;4872940;28;24431;-70
2023/12/24 08:03:49;;;;;;;0.40;0.40;;;11.00;99.90;;;11.26;89.16;100105.69;4868420;28;24443;-68
2023/12/24 08:06:12;;;;;;;0.40;0.40;;;11.00;99.90;;;11.25;89.72;100111.03;4876171;28;25088;-68
2023/12/24 08:08:36;;;;;;;0.40;0.40;;;11.00;99.90;;;11.26;90.01;100112.69;4865327;28;24882;-66
2023/12/24 08:10:59;;;;;;;0.40;0.40;;;10.90;99.90;;;11.25;89.68;100116.25;4867987;28;24860;-65
2023/12/24 08:13:35;;;;;;;0.40;0.40;;;10.90;99.90;;;11.22;90.00;100109.50;4871796;28;25006;-70
2023/12/24 08:15:57;;;;;;;0.50;0.40;;;10.90;99.90;;;11.20;90.53;100108.00;4863168;28;24513;-69
2023/12/24 08:18:19;;;;;;;0.40;0.40;;;10.90;99.90;;;11.24;90.88;100109.38;4868056;28;24438;-69
2023/12/24 08:20:41;;;;;;;0.40;0.40;;;10.90;99.90;;;11.26;90.23;100103.09;4874846;28;24511;-70
2023/12/24 08:23:03;;;;;;;0.40;0.40;;;10.90;99.90;;;11.28;90.63;100106.41;4874827;28;25030;-69
2023/12/24 08:25:25;;;;;;;0.40;0.40;;;10.90;99.90;;;11.36;90.78;100113.59;4865427;28;25225;-67
2023/12/24 08:27:47;;;;;;;0.85;0.80;;;11.00;99.90;;;11.34;89.59;100108.50;4860015;28;24452;-66
2023/12/24 08:30:10;;;;;;;10.02;4.35;;;11.10;99.90;;;11.29;90.81;100108.03;4875333;28;24453;-66
2023/12/24 08:32:32;;;;;;;0.30;0.30;;;11.00;99.90;;;11.29;90.22;100112.44;4867099;28;24454;-67
2023/12/24 08:34:54;;;;;;;0.77;0.40;;;11.00;99.90;;;11.30;89.93;100109.72;4872380;28;24765;-66
2023/12/24 08:37:16;;;;;;;0.40;0.40;;;11.00;99.90;;;11.34;90.57;100108.50;4857493;28;25002;-67
2023/12/24 08:39:38;;;;;;;0.40;0.40;;;11.00;99.90;;;11.36;90.55;100109.19;4863922;28;24454;-68
2023/12/24 08:42:00;;;;;;;0.40;0.40;;;11.00;99.90;;;11.35;89.93;100107.53;4873351;28;24840;-68
2023/12/24 08:44:22;;;;;;;0.50;0.50;;;11.10;99.90;;;11.40;90.02;100088.84;4867696;28;24980;-66
2023/12/24 08:46:47;;;;;;;0.40;0.40;;;11.10;99.90;;;11.36;89.16;100090.06;4858303;28;24439;-68
2023/12/24 08:49:09;;;;;;;0.40;0.40;;;11.10;99.90;;;11.41;88.71;100103.59;4865202;28;24518;-67
2023/12/24 08:51:31;;;;;;;0.30;0.30;;;11.10;99.90;;;11.45;88.98;100102.38;4869606;28;24451;-68
2023/12/24 08:53:53;;;;;;;0.40;0.40;;;11.20;99.90;;;11.47;89.51;100097.84;4861101;28;24443;-66
2023/12/24 08:56:15;;;;;;;0.40;0.40;;;11.10;99.90;;;11.48;88.65;100094.25;4856231;28;24534;-67
2023/12/24 08:58:37;;;;;;;0.47;0.47;;;11.10;99.90;;;11.52;89.38;100093.88;4864657;28;24442;-66
2023/12/24 09:00:59;;;;;;;0.40;0.40;;;11.20;99.90;;;11.53;89.14;100106.00;4864484;28;24434;-65
2023/12/24 09:03:21;;;;;;;0.40;0.40;;;11.20;99.90;;;11.56;88.38;100107.53;4859910;28;24447;-66
2023/12/24 09:05:43;;;;;;;0.40;0.40;;;11.20;99.90;;;11.56;88.94;100108.34;4868028;28;24985;-66
2023/12/24 09:08:05;;;;;;;0.40;0.40;;;11.20;99.90;;;11.58;88.58;100097.78;4863180;28;24485;-67
2023/12/24 09:10:27;;;;;;;0.40;0.40;;;11.30;99.90;;;11.54;88.88;100093.78;4857446;28;24855;-66
2023/12/24 09:12:49;;;;;;;0.30;0.30;;;11.20;99.90;;;11.54;88.17;100104.22;4868104;28;24522;-66
2023/12/24 09:15:12;;;;;;;0.40;0.40;;;11.20;99.90;;;11.57;88.61;100102.16;4866792;28;24545;-67
2023/12/24 09:17:33;;;;;;;0.50;0.50;;;11.30;99.90;;;11.51;88.30;100097.47;4865297;28;25206;-66
2023/12/24 09:19:55;;;;;;;0.40;0.40;;;11.20;99.90;;;11.51;88.27;100104.47;4858983;28;24446;-65
2023/12/24 09:22:17;;;;;;;0.40;0.40;;;11.20;99.90;;;11.51;88.43;100107.91;4847470;28;24440;-66
2023/12/24 09:24:39;;;;;;;0.40;0.40;;;11.20;99.90;;;11.52;88.95;100108.75;4871244;28;24446;-67
2023/12/24 09:27:01;;;;;;;0.40;0.40;;;11.20;99.90;;;11.55;88.43;100092.81;4856383;28;24578;-65
2023/12/24 09:29:23;;;;;;;0.40;0.40;;;11.20;99.90;;;11.62;87.21;100109.63;4867266;28;24458;-65
2023/12/24 09:31:45;;;;;;;9.00;4.40;;;11.30;99.90;;;11.67;87.21;100112.69;4866493;28;24527;-64
2023/12/24 09:34:08;;;;;;;0.40;0.40;;;11.40;99.90;;;11.73;86.06;100104.34;4860851;28;24497;-69
2023/12/24 09:36:30;;;;;;;0.30;0.30;;;11.40;99.90;;;11.83;85.74;100117.47;4858191;28;24455;-66
2023/12/24 09:38:52;;;;;;;0.50;0.40;;;11.40;99.90;;;11.89;85.61;100112.53;4855296;28;24458;-66
2023/12/24 09:41:18;;;;;;;0.50;0.50;;;11.50;99.90;;;11.97;85.11;100097.00;4869816;28;24518;-66
2023/12/24 09:43:41;;;;;;;0.30;0.30;;;11.60;99.90;;;12.03;84.62;100095.69;4872825;28;24987;-67
2023/12/24 09:46:03;;;;;;;0.40;0.40;;;11.70;99.90;;;12.02;84.98;100102.69;4844928;28;24480;-67
2023/12/24 09:48:25;;;;;;;0.40;0.40;;;11.70;99.90;;;12.01;85.28;100090.56;4870544;28;24532;-70
2023/12/24 09:50:47;;;;;;;0.40;0.40;;;11.70;99.90;;;11.99;85.41;100102.13;4860475;28;24810;-65
2023/12/24 09:53:09;;;;;;;0.50;0.40;;;11.70;99.90;;;12.01;85.76;100106.25;4861570;28;24438;-65